createdAt,value
2022-11-19T00:02:18.557Z,86470.66
2022-11-19T00:07:22.106Z,85774.66
2022-11-19T00:12:44.483Z,85594.47
2022-11-19T00:17:47.940Z,85586.19
2022-11-19T00:22:52.613Z,85294.16
2022-11-19T00:27:59.554Z,85319.03
2022-11-19T00:33:03.130Z,85138.84
2022-11-19T00:38:06.654Z,85000.09
2022-11-19T00:43:28.631Z,84797.16
2022-11-19T00:48:32.104Z,84714.34
2022-11-19T00:53:36.079Z,84130.44
2022-11-19T00:58:41.561Z,83929.59
2022-11-19T01:03:46.201Z,83929.59
2022-11-19T01:08:50.766Z,83674.97
2022-11-19T01:13:56.211Z,83656.34
2022-11-19T01:18:59.757Z,83656.34
2022-11-19T01:24:04.366Z,82333.72
2022-11-19T01:29:09.196Z,82333.72
2022-11-19T01:34:12.774Z,82333.72
2022-11-19T01:39:16.259Z,82333.72
2022-11-19T01:45:02.458Z,82333.72
2022-11-19T01:50:07.931Z,82333.72
2022-11-19T01:55:12.568Z,82333.72
2022-11-19T02:00:17.282Z,82333.72
2022-11-19T02:05:22.856Z,82333.72
2022-11-19T02:10:36.509Z,82333.72
2022-11-19T02:15:46.872Z,82333.72
2022-11-19T02:21:00.820Z,82333.72
2022-11-19T02:26:34.935Z,82333.72
2022-11-19T02:31:46.497Z,82333.72
2022-11-19T02:36:58.880Z,82333.72
2022-11-19T02:42:09.972Z,82333.72
2022-11-19T02:47:17.530Z,82333.72
2022-11-19T02:52:21.911Z,82333.72
2022-11-19T02:57:25.450Z,82333.72
2022-11-19T03:02:51.779Z,82333.72
2022-11-19T03:07:55.450Z,82333.72
2022-11-19T03:13:29.214Z,82333.72
2022-11-19T03:18:39.836Z,82333.72
2022-11-19T03:23:47.495Z,82333.72
2022-11-19T03:28:54.235Z,82333.72
2022-11-19T03:34:02.113Z,82333.72
2022-11-19T03:39:09.007Z,82333.72
2022-11-19T03:44:17.586Z,82333.72
2022-11-19T03:49:28.362Z,82333.72
2022-11-19T03:54:32.011Z,82333.72
2022-11-19T03:59:35.951Z,82333.72
2022-11-19T04:04:40.798Z,82333.72
2022-11-19T04:09:44.807Z,82333.72
2022-11-19T04:14:48.477Z,82333.72
2022-11-19T04:19:53.385Z,82333.72
2022-11-19T04:24:57.023Z,82333.72
2022-11-19T04:30:00.574Z,82333.72
2022-11-19T04:35:06.119Z,82333.72
2022-11-19T04:40:10.858Z,82333.72
2022-11-19T04:45:14.252Z,82333.72
2022-11-19T04:50:19.074Z,82333.72
2022-11-19T04:55:22.597Z,82333.72
2022-11-19T05:00:26.288Z,82333.72
2022-11-19T05:05:31.282Z,82333.72
2022-11-19T05:10:34.755Z,82333.72
2022-11-19T05:15:38.297Z,82333.72
2022-11-19T05:20:43.148Z,82333.72
2022-11-19T05:25:47.415Z,82333.72
2022-11-19T05:30:54.691Z,82333.72
2022-11-19T05:35:59.521Z,82333.72
2022-11-19T05:41:03.004Z,82333.72
2022-11-19T05:46:06.879Z,82333.72
2022-11-19T05:51:14.560Z,82333.72
2022-11-19T05:56:18.042Z,82333.72
2022-11-19T06:01:26.143Z,82333.72
2022-11-19T06:06:30.960Z,82333.72
2022-11-19T06:11:50.383Z,82333.72
2022-11-19T06:16:57.176Z,82333.72
2022-11-19T06:22:02.118Z,82333.72
2022-11-19T06:27:05.635Z,82333.72
2022-11-19T06:32:09.087Z,82333.72
2022-11-19T06:37:14.176Z,82333.72
2022-11-19T06:42:35.455Z,82333.72
2022-11-19T06:47:40.857Z,82333.72
2022-11-19T06:52:45.713Z,82333.72
2022-11-19T06:57:49.189Z,82333.72
2022-11-19T07:02:52.869Z,82333.72
2022-11-19T07:08:02.636Z,82333.72
2022-11-19T07:13:06.830Z,82333.72
2022-11-19T07:18:11.337Z,82333.72
2022-11-19T07:23:16.121Z,82333.72
2022-11-19T07:28:19.541Z,82333.72
2022-11-19T07:33:22.999Z,82333.72
2022-11-19T07:38:32.735Z,82333.72
2022-11-19T07:43:39.273Z,82333.72
2022-11-19T07:48:42.921Z,82333.72
2022-11-19T07:53:47.862Z,82333.72
2022-11-19T07:58:51.555Z,82333.72
2022-11-19T08:03:56.766Z,82333.72
2022-11-19T08:09:02.589Z,82333.72
2022-11-19T08:14:06.107Z,82333.72
2022-11-19T08:19:11.485Z,82333.72
2022-11-19T08:24:20.203Z,82333.72
2022-11-19T08:29:24.222Z,82333.72
2022-11-19T08:34:27.831Z,82333.72
2022-11-19T08:39:33.065Z,82333.72
2022-11-19T08:44:36.663Z,82333.72
2022-11-19T08:49:40.362Z,82333.72
2022-11-19T08:54:45.275Z,82333.72
2022-11-19T08:59:48.879Z,82333.72
2022-11-19T09:04:52.493Z,82333.34
2022-11-19T09:09:57.727Z,82333.34
2022-11-19T09:15:01.389Z,82333.34
2022-11-19T09:20:05.905Z,82333.72
2022-11-19T09:25:22.606Z,82333.34
2022-11-19T09:30:26.971Z,82333.72
2022-11-19T09:35:30.603Z,82333.72
2022-11-19T09:40:36.046Z,82333.72
2022-11-19T09:45:50.118Z,82333.72
2022-11-19T09:50:59.582Z,82333.34
2022-11-19T09:56:04.747Z,82333.34
2022-11-19T10:01:11.887Z,82333.72
2022-11-19T10:06:29.092Z,63639.06
2022-11-19T10:11:44.181Z,63639.06
2022-11-19T10:16:58.388Z,63639.06
2022-11-19T10:22:09.426Z,63639.06
2022-11-19T10:27:25.180Z,63639.06
2022-11-19T10:32:32.826Z,63639.06
2022-11-19T10:37:42.091Z,63639.06
2022-11-19T10:42:51.012Z,63639.06
2022-11-19T10:48:04.663Z,63639.06
2022-11-19T10:53:18.233Z,63639.06
2022-11-19T10:58:27.404Z,63639.06
2022-11-19T11:03:35.423Z,63639.06
2022-11-19T11:08:50.387Z,63639.06
2022-11-19T11:14:12.915Z,63639.06
2022-11-19T11:19:19.888Z,63639.06
2022-11-19T11:24:32.951Z,63639.06
2022-11-19T11:29:37.973Z,63639.06
2022-11-19T11:34:44.255Z,63639.06
2022-11-19T11:39:52.074Z,63639.06
2022-11-19T11:44:59.590Z,63639.06
2022-11-19T11:50:09.488Z,63639.06
2022-11-19T11:55:16.818Z,63639.06
2022-11-19T12:00:34.149Z,63639.06
2022-11-19T12:06:01.628Z,63639.06
2022-11-19T12:11:13.989Z,63639.06
2022-11-19T12:16:27.901Z,63639.06
2022-11-19T12:21:38.128Z,63639.06
2022-11-19T12:26:51.634Z,63639.06
2022-11-19T12:32:18.996Z,63639.06
2022-11-19T12:37:41.891Z,63639.06
2022-11-19T12:42:54.170Z,63639.06
2022-11-19T12:48:23.896Z,63639.06
2022-11-19T12:53:52.958Z,63639.06
2022-11-19T12:59:05.730Z,63639.06
2022-11-19T13:04:17.618Z,63639.06
2022-11-19T13:09:31.489Z,63639.06
2022-11-19T13:14:41.155Z,63639.06
2022-11-19T13:19:51.234Z,63639.06
2022-11-19T13:24:59.060Z,63639.06
2022-11-19T13:30:05.591Z,63639.06
2022-11-19T13:35:22.492Z,63639.06
2022-11-19T13:40:31.871Z,63639.06
2022-11-19T13:45:38.339Z,63639.06
2022-11-19T13:50:49.045Z,63639.06
2022-11-19T13:55:57.291Z,63639.06
2022-11-19T14:01:15.537Z,63639.06
2022-11-19T14:06:59.689Z,63639.06
2022-11-19T14:12:42.324Z,63639.06
2022-11-19T14:18:09.451Z,63639.06
2022-11-19T14:24:02.182Z,63639.06
2022-11-19T14:29:05.629Z,63639.06
2022-11-19T14:34:27.023Z,63639.06
2022-11-19T14:39:33.889Z,63639.06
2022-11-19T14:44:37.378Z,63639.06
2022-11-19T14:49:41.319Z,63639.06
2022-11-19T14:54:46.835Z,63639.06
2022-11-19T14:59:53.744Z,63639.06
2022-11-19T15:05:03.464Z,63639.06
2022-11-19T15:10:29.123Z,63639.06
2022-11-19T15:15:38.580Z,63639.06
2022-11-19T15:21:02.771Z,63639.06
2022-11-19T15:26:18.444Z,63639.06
2022-11-19T15:31:33.267Z,63639.06
2022-11-19T15:36:40.579Z,63639.06
2022-11-19T15:42:00.655Z,63639.06
2022-11-19T15:47:06.873Z,63639.06
2022-11-19T15:52:19.731Z,63639.06
2022-11-19T15:57:27.314Z,63639.06
2022-11-19T16:02:37.191Z,63639.06
2022-11-19T16:07:41.882Z,63639.06
2022-11-19T16:13:14.214Z,63639.06
2022-11-19T16:18:20.257Z,63639.06
2022-11-19T16:23:26.062Z,63639.06
2022-11-19T16:28:31.462Z,63639.06
2022-11-19T16:33:35.663Z,63639.06
2022-11-19T16:38:41.923Z,63639.06
2022-11-19T16:43:48.700Z,63639.06
2022-11-19T16:48:58.000Z,63639.06
2022-11-19T16:54:01.895Z,63639.06
2022-11-19T16:59:08.204Z,63639.06
2022-11-19T17:04:15.300Z,63639.06
2022-11-19T17:09:41.630Z,63639.06
2022-11-19T17:14:52.514Z,63639.06
2022-11-19T17:19:57.713Z,63639.06
2022-11-19T17:25:04.441Z,63639.06
2022-11-19T17:30:20.563Z,63639.06
2022-11-19T17:35:34.940Z,63639.06
2022-11-19T17:40:47.801Z,63639.06
2022-11-19T17:45:52.694Z,63639.06
2022-11-19T17:50:56.826Z,63639.06
2022-11-19T17:56:02.927Z,63639.06
2022-11-19T18:01:07.970Z,63639.06
2022-11-19T18:06:12.948Z,63639.06
2022-11-19T18:11:19.648Z,63639.06
2022-11-19T18:16:27.355Z,63639.06
2022-11-19T18:21:31.007Z,63639.06
2022-11-19T18:26:34.562Z,63639.06
2022-11-19T18:31:44.532Z,63639.06
2022-11-19T18:36:48.113Z,63639.06
2022-11-19T18:41:52.375Z,63639.06
2022-11-19T18:46:57.373Z,63639.06
2022-11-19T18:52:01.009Z,63639.06
2022-11-19T18:57:05.050Z,63639.06
2022-11-19T19:02:11.069Z,63639.06
2022-11-19T19:07:14.779Z,63639.06
2022-11-19T19:12:18.752Z,63639.06
2022-11-19T19:17:23.684Z,63639.06
2022-11-19T19:22:27.338Z,63639.06
2022-11-19T19:27:30.784Z,63639.06
2022-11-19T19:32:36.795Z,63639.06
2022-11-19T19:37:42.607Z,63639.06
2022-11-19T19:42:46.101Z,63639.06
2022-11-19T19:47:51.208Z,63639.06
2022-11-19T19:52:54.747Z,63639.06
2022-11-19T19:57:58.379Z,63639.06
2022-11-19T20:03:03.293Z,63639.06
2022-11-19T20:08:07.409Z,63639.06
2022-11-19T20:13:29.148Z,63639.06
2022-11-19T20:18:34.316Z,63639.06
2022-11-19T20:23:38.382Z,63639.06
2022-11-19T20:28:42.450Z,63639.06
2022-11-19T20:33:52.303Z,63639.06
2022-11-19T20:38:57.553Z,63639.06
2022-11-19T20:44:19.649Z,63639.06
2022-11-19T20:49:25.992Z,63639.06
2022-11-19T20:54:29.908Z,63639.06
2022-11-19T20:59:33.495Z,63639.06
2022-11-19T21:04:38.392Z,63639.06
2022-11-19T21:09:42.741Z,63639.06
2022-11-19T21:14:46.602Z,63639.06
2022-11-19T21:19:52.065Z,63639.06
2022-11-19T21:24:55.730Z,63639.06
2022-11-19T21:29:59.222Z,63639.06
2022-11-19T21:35:04.171Z,63639.06
2022-11-19T21:40:08.904Z,63639.06
2022-11-19T21:45:12.371Z,63639.06
2022-11-19T21:50:18.318Z,63639.06
2022-11-19T21:55:21.916Z,63639.06
2022-11-19T22:00:25.927Z,63639.06
2022-11-19T22:05:31.051Z,63639.06
2022-11-19T22:10:34.536Z,63639.06
2022-11-19T22:15:38.126Z,63639.06
2022-11-19T22:20:43.563Z,63639.06
2022-11-19T22:25:47.156Z,63639.06
2022-11-19T22:30:53.673Z,63639.06
2022-11-19T22:36:02.708Z,63639.06
2022-11-19T22:41:11.135Z,63639.06
2022-11-19T22:46:15.599Z,63639.06
2022-11-19T22:51:22.253Z,63639.06
2022-11-19T22:56:27.835Z,63639.06
2022-11-19T23:01:33.034Z,63639.06
2022-11-19T23:06:38.518Z,63639.06
2022-11-19T23:11:59.411Z,63639.06
2022-11-19T23:17:02.743Z,63639.06
2022-11-19T23:22:07.771Z,63639.06
2022-11-19T23:27:11.275Z,63639.06
2022-11-19T23:32:14.749Z,63639.06
2022-11-19T23:37:19.749Z,63639.06
2022-11-19T23:42:23.217Z,63639.06
2022-11-19T23:47:26.654Z,63639.06
2022-11-19T23:52:31.595Z,63639.06
2022-11-19T23:57:35.247Z,63639.06
